createdAt,value
2024-05-09T00:01:22.947Z,110.71
2024-05-09T00:02:23.035Z,109.43
2024-05-09T00:03:22.917Z,108.63
2024-05-09T00:04:22.975Z,108.17
2024-05-09T00:05:22.981Z,109.20
2024-05-09T00:06:22.852Z,107.57
2024-05-09T00:07:22.938Z,108.16
2024-05-09T00:08:22.896Z,105.53
2024-05-09T00:09:22.811Z,108.51
2024-05-09T00:10:29.247Z,108.61
2024-05-09T00:11:23.912Z,108.81
2024-05-09T00:12:22.939Z,109.04
2024-05-09T00:13:22.792Z,109.75
2024-05-09T00:14:22.889Z,109.52
2024-05-09T00:15:22.772Z,109.63
2024-05-09T00:16:22.773Z,109.75
2024-05-09T00:17:22.932Z,106.34
2024-05-09T00:18:22.913Z,107.35
2024-05-09T00:19:22.937Z,108.21
2024-05-09T00:20:28.429Z,107.76
2024-05-09T00:21:23.759Z,107.92
2024-05-09T00:22:22.757Z,108.24
2024-05-09T00:23:22.830Z,107.95
2024-05-09T00:24:22.737Z,108.07
2024-05-09T00:25:22.743Z,107.26
2024-05-09T00:26:22.815Z,108.20
2024-05-09T00:27:22.741Z,107.92
2024-05-09T00:28:22.724Z,108.64
2024-05-09T00:29:22.748Z,107.60
2024-05-09T00:30:31.086Z,108.17
2024-05-09T00:31:23.707Z,108.32
2024-05-09T00:32:22.821Z,108.54
2024-05-09T00:33:22.873Z,108.97
2024-05-09T00:34:22.798Z,108.51
2024-05-09T00:35:22.731Z,107.29
2024-05-09T00:36:22.698Z,108.91
2024-05-09T00:37:22.662Z,107.04
2024-05-09T00:38:22.750Z,106.90
2024-05-09T00:39:22.654Z,107.12
2024-05-09T00:40:30.969Z,106.69
2024-05-09T00:41:23.765Z,106.83
2024-05-09T00:42:22.642Z,106.82
2024-05-09T00:43:22.630Z,107.14
2024-05-09T00:44:22.798Z,107.70
2024-05-09T00:45:22.606Z,107.33
2024-05-09T00:46:22.601Z,107.56
2024-05-09T00:47:22.761Z,107.49
2024-05-09T00:48:22.692Z,107.33
2024-05-09T00:49:22.756Z,106.97
2024-05-09T00:50:29.594Z,106.59
2024-05-09T00:51:23.571Z,106.78
2024-05-09T00:52:22.536Z,106.82
2024-05-09T00:53:22.565Z,107.04
2024-05-09T00:54:22.533Z,107.42
2024-05-09T00:55:22.529Z,108.02
2024-05-09T00:56:22.618Z,106.65
2024-05-09T00:57:22.512Z,108.37
2024-05-09T00:58:22.503Z,106.10
2024-05-09T00:59:22.643Z,105.35
2024-05-09T01:00:31.105Z,106.18
2024-05-09T01:01:23.520Z,106.37
2024-05-09T01:02:22.671Z,106.42
2024-05-09T01:03:22.988Z,106.88
2024-05-09T01:04:22.504Z,107.17
2024-05-09T01:05:22.492Z,107.05
2024-05-09T01:06:22.485Z,105.56
2024-05-09T01:07:22.479Z,106.39
2024-05-09T01:08:22.473Z,104.61
2024-05-09T01:09:22.458Z,105.08
2024-05-09T01:10:28.153Z,106.77
2024-05-09T01:11:23.581Z,106.90
2024-05-09T01:12:22.611Z,107.00
2024-05-09T01:13:22.456Z,107.21
2024-05-09T01:14:22.447Z,107.01
2024-05-09T01:15:22.475Z,106.49
2024-05-09T01:16:22.449Z,105.49
2024-05-09T01:17:22.593Z,106.94
2024-05-09T01:18:22.564Z,106.43
2024-05-09T01:19:22.524Z,106.78
2024-05-09T01:21:22.457Z,105.39
2024-05-09T01:22:22.439Z,105.02
2024-05-09T01:23:22.544Z,104.46
2024-05-09T01:24:22.432Z,104.86
2024-05-09T01:25:22.435Z,103.21
2024-05-09T01:26:22.473Z,104.21
2024-05-09T01:27:22.482Z,106.46
2024-05-09T01:28:22.450Z,104.56
2024-05-09T01:29:22.567Z,104.26
2024-05-09T01:30:31.239Z,104.01
2024-05-09T01:31:23.433Z,104.16
2024-05-09T01:32:22.714Z,104.40
2024-05-09T01:33:22.639Z,105.02
2024-05-09T01:34:22.635Z,104.77
2024-05-09T01:35:22.471Z,105.57
2024-05-09T01:36:22.426Z,103.65
2024-05-09T01:37:22.445Z,103.50
2024-05-09T01:38:22.488Z,102.89
2024-05-09T01:39:22.451Z,103.24
2024-05-09T01:40:29.126Z,102.55
2024-05-09T01:41:23.478Z,102.71
2024-05-09T01:42:22.445Z,103.03
2024-05-09T01:43:22.430Z,102.88
2024-05-09T01:44:22.531Z,103.32
2024-05-09T01:45:22.420Z,102.77
2024-05-09T01:46:22.429Z,103.42
2024-05-09T01:47:22.592Z,103.74
2024-05-09T01:48:22.617Z,103.63
2024-05-09T01:49:22.518Z,102.68
2024-05-09T01:50:33.299Z,101.46
2024-05-09T01:51:23.451Z,101.60
2024-05-09T01:52:22.393Z,101.94
2024-05-09T01:53:22.445Z,101.84
2024-05-09T01:54:22.389Z,101.75
2024-05-09T01:55:22.379Z,101.19
2024-05-09T01:56:22.398Z,100.66
2024-05-09T01:57:22.370Z,101.45
2024-05-09T01:58:22.364Z,101.24
2024-05-09T01:59:22.492Z,102.61
2024-05-09T02:00:33.184Z,102.52
2024-05-09T02:01:23.361Z,102.66
2024-05-09T02:02:22.412Z,102.81
2024-05-09T02:03:22.446Z,102.91
2024-05-09T02:04:22.475Z,103.52
2024-05-09T02:05:22.404Z,102.44
2024-05-09T02:06:22.304Z,101.43
2024-05-09T02:07:22.310Z,101.86
2024-05-09T02:08:22.483Z,101.92
2024-05-09T02:09:22.290Z,102.02
2024-05-09T02:10:26.426Z,103.17
2024-05-09T02:11:23.334Z,103.26
2024-05-09T02:12:22.458Z,103.19
2024-05-09T02:13:22.266Z,103.29
2024-05-09T02:14:22.315Z,101.61
2024-05-09T02:15:22.249Z,103.43
2024-05-09T02:16:22.264Z,102.38
2024-05-09T02:17:22.610Z,100.54
2024-05-09T02:18:22.431Z,101.87
2024-05-09T02:19:22.514Z,101.96
2024-05-09T02:20:29.798Z,101.43
2024-05-09T02:21:23.223Z,101.61
2024-05-09T02:22:22.244Z,101.96
2024-05-09T02:23:22.288Z,102.44
2024-05-09T02:24:22.225Z,101.44
2024-05-09T02:25:22.196Z,103.86
2024-05-09T02:26:22.298Z,103.10
2024-05-09T02:27:22.179Z,103.34
2024-05-09T02:28:22.174Z,102.59
2024-05-09T02:29:22.383Z,103.33
2024-05-09T02:30:26.385Z,104.06
2024-05-09T02:31:23.139Z,104.16
2024-05-09T02:32:22.300Z,104.10
2024-05-09T02:33:22.451Z,102.69
2024-05-09T02:34:22.242Z,102.98
2024-05-09T02:35:22.164Z,104.46
2024-05-09T02:36:22.107Z,103.73
2024-05-09T02:37:22.104Z,103.73
2024-05-09T02:38:22.118Z,103.12
2024-05-09T02:39:22.084Z,104.60
2024-05-09T02:41:22.120Z,106.74
2024-05-09T02:42:22.084Z,102.88
2024-05-09T02:43:22.059Z,102.21
2024-05-09T02:44:22.096Z,104.38
2024-05-09T02:45:22.067Z,104.22
2024-05-09T02:46:22.052Z,102.76
2024-05-09T02:47:22.256Z,103.29
2024-05-09T02:48:22.220Z,103.95
2024-05-09T02:49:22.086Z,102.98
2024-05-09T02:51:22.030Z,103.19
2024-05-09T02:52:22.039Z,103.22
2024-05-09T02:53:22.070Z,102.42
2024-05-09T02:54:22.007Z,103.41
2024-05-09T02:55:22.012Z,102.43
2024-05-09T02:56:22.082Z,104.73
2024-05-09T02:57:22.014Z,103.04
2024-05-09T02:58:22.009Z,101.75
2024-05-09T02:59:22.247Z,102.10
2024-05-09T03:00:26.514Z,103.09
2024-05-09T03:01:23.041Z,103.25
2024-05-09T03:02:22.198Z,103.84
2024-05-09T03:03:22.442Z,103.69
2024-05-09T03:04:21.991Z,103.61
2024-05-09T03:05:21.968Z,103.82
2024-05-09T03:06:21.927Z,104.27
2024-05-09T03:07:21.926Z,104.25
2024-05-09T03:08:22.028Z,102.68
2024-05-09T03:09:21.913Z,103.88
2024-05-09T03:10:25.446Z,102.90
2024-05-09T03:11:22.954Z,103.07
2024-05-09T03:12:21.923Z,103.40
2024-05-09T03:13:21.870Z,104.04
2024-05-09T03:14:21.963Z,104.12
2024-05-09T03:15:21.858Z,104.59
2024-05-09T03:16:21.855Z,103.99
2024-05-09T03:17:21.954Z,104.07
2024-05-09T03:18:21.980Z,103.09
2024-05-09T03:19:22.136Z,104.61
2024-05-09T03:20:27.349Z,102.09
2024-05-09T03:21:22.841Z,102.28
2024-05-09T03:22:21.827Z,102.56
2024-05-09T03:23:21.898Z,102.40
2024-05-09T03:24:21.804Z,104.03
2024-05-09T03:25:21.793Z,102.87
2024-05-09T03:26:21.844Z,102.45
2024-05-09T03:27:21.796Z,104.46
2024-05-09T03:28:21.791Z,103.65
2024-05-09T03:29:21.859Z,103.55
2024-05-09T03:30:28.734Z,102.45
2024-05-09T03:31:22.770Z,102.59
2024-05-09T03:32:21.907Z,102.84
2024-05-09T03:33:22.270Z,103.01
2024-05-09T03:34:21.763Z,102.59
2024-05-09T03:35:21.832Z,104.19
2024-05-09T03:36:21.687Z,103.47
2024-05-09T03:37:21.680Z,104.00
2024-05-09T03:38:21.726Z,101.09
2024-05-09T03:39:21.662Z,102.25
2024-05-09T03:40:26.374Z,101.33
2024-05-09T03:41:23.014Z,101.54
2024-05-09T03:42:21.631Z,101.88
2024-05-09T03:43:21.637Z,102.16
2024-05-09T03:44:21.650Z,101.75
2024-05-09T03:45:21.609Z,102.09
2024-05-09T03:46:21.603Z,101.34
2024-05-09T03:47:21.904Z,100.70
2024-05-09T03:48:21.800Z,101.50
2024-05-09T03:49:21.958Z,100.81
2024-05-09T03:50:26.188Z,102.78
2024-05-09T03:51:22.559Z,102.92
2024-05-09T03:52:21.558Z,102.82
2024-05-09T03:53:21.549Z,102.90
2024-05-09T03:54:21.527Z,102.11
2024-05-09T03:55:21.531Z,101.43
2024-05-09T03:56:21.539Z,101.81
2024-05-09T03:57:21.590Z,100.90
2024-05-09T03:58:21.512Z,101.51
2024-05-09T03:59:21.533Z,100.13
2024-05-09T04:00:26.682Z,100.99
2024-05-09T04:01:22.538Z,101.12
2024-05-09T04:02:21.637Z,101.46
2024-05-09T04:03:21.629Z,101.51
2024-05-09T04:04:21.504Z,101.60
2024-05-09T04:05:21.501Z,103.13
2024-05-09T04:06:21.458Z,99.77
2024-05-09T04:07:21.475Z,100.37
2024-05-09T04:08:21.592Z,100.37
2024-05-09T04:09:21.441Z,99.36
2024-05-09T04:10:27.945Z,100.59
2024-05-09T04:11:22.489Z,100.69
2024-05-09T04:12:21.498Z,101.02
2024-05-09T04:13:21.615Z,101.70
2024-05-09T04:14:21.537Z,101.77
2024-05-09T04:15:21.450Z,98.76
2024-05-09T04:16:21.396Z,100.39
2024-05-09T04:17:21.436Z,100.72
2024-05-09T04:18:21.515Z,102.22
2024-05-09T04:19:21.620Z,100.75
2024-05-09T04:20:32.386Z,100.94
2024-05-09T04:21:22.359Z,101.06
2024-05-09T04:22:21.410Z,101.21
2024-05-09T04:23:21.399Z,100.94
2024-05-09T04:24:21.371Z,101.36
2024-05-09T04:25:21.386Z,102.72
2024-05-09T04:26:21.450Z,100.92
2024-05-09T04:27:21.439Z,100.92
2024-05-09T04:28:21.461Z,99.60
2024-05-09T04:29:21.373Z,100.21
2024-05-09T04:30:30.244Z,99.31
2024-05-09T04:31:22.327Z,99.48
2024-05-09T04:32:21.585Z,99.90
2024-05-09T04:33:21.660Z,100.39
2024-05-09T04:34:21.446Z,101.03
2024-05-09T04:35:21.367Z,100.80
2024-05-09T04:36:21.263Z,100.49
2024-05-09T04:37:21.255Z,101.60
2024-05-09T04:38:21.324Z,100.37
2024-05-09T04:39:21.250Z,98.46
2024-05-09T04:40:28.341Z,100.09
2024-05-09T04:41:22.278Z,100.26
2024-05-09T04:42:21.226Z,100.41
2024-05-09T04:43:21.216Z,100.69
2024-05-09T04:44:21.261Z,100.88
2024-05-09T04:45:21.199Z,101.24
2024-05-09T04:46:21.204Z,100.32
2024-05-09T04:47:21.381Z,101.59
2024-05-09T04:48:28.942Z,50.00
2024-05-09T04:49:28.856Z,50.00
2024-05-09T04:50:35.958Z,50.00
2024-05-09T04:51:29.718Z,50.00
2024-05-09T04:52:28.701Z,50.00
2024-05-09T04:53:28.710Z,50.00
2024-05-09T04:54:35.811Z,50.00
2024-05-09T04:55:29.687Z,50.00
2024-05-09T04:56:28.745Z,50.00
2024-05-09T04:57:28.653Z,50.00
2024-05-09T04:58:28.637Z,50.00
2024-05-09T04:59:28.650Z,50.00
2024-05-09T05:00:35.337Z,52.60
2024-05-09T05:01:29.615Z,52.78
2024-05-09T05:02:28.649Z,52.93
2024-05-09T05:03:28.760Z,51.84
2024-05-09T05:04:28.599Z,50.64
2024-05-09T05:05:28.659Z,51.14
2024-05-09T05:06:28.540Z,50.29
2024-05-09T05:07:28.531Z,52.91
2024-05-09T05:08:28.636Z,52.17
2024-05-09T05:09:28.519Z,53.01
2024-05-09T05:10:34.024Z,51.17
2024-05-09T05:11:29.582Z,51.36
2024-05-09T05:12:28.669Z,51.93
2024-05-09T05:13:28.476Z,52.08
2024-05-09T05:14:28.564Z,51.31
2024-05-09T05:15:28.471Z,50.66
2024-05-09T05:16:28.450Z,54.16
2024-05-09T05:17:28.571Z,52.09
2024-05-09T05:18:28.672Z,52.55
2024-05-09T05:19:28.689Z,52.17
2024-05-09T05:20:33.511Z,52.77
2024-05-09T05:21:29.418Z,52.96
2024-05-09T05:22:28.420Z,53.25
2024-05-09T05:23:28.513Z,51.87
2024-05-09T05:24:28.406Z,52.45
2024-05-09T05:25:28.385Z,51.81
2024-05-09T05:26:28.433Z,53.19
2024-05-09T05:27:28.374Z,52.26
2024-05-09T05:28:28.383Z,51.37
2024-05-09T05:29:28.431Z,52.91
2024-05-09T05:30:32.922Z,53.38
2024-05-09T05:31:29.386Z,53.46
2024-05-09T05:32:28.503Z,53.43
2024-05-09T05:33:28.516Z,53.40
2024-05-09T05:34:28.316Z,53.42
2024-05-09T05:35:28.508Z,53.04
2024-05-09T05:36:28.287Z,54.01
2024-05-09T05:37:28.280Z,52.65
2024-05-09T05:38:28.819Z,52.65
2024-05-09T05:39:28.280Z,53.10
2024-05-09T05:40:35.543Z,51.21
2024-05-09T05:41:29.370Z,51.46
2024-05-09T05:42:28.262Z,52.00
2024-05-09T05:43:28.244Z,51.60
2024-05-09T05:44:28.322Z,52.88
2024-05-09T05:45:28.231Z,54.47
2024-05-09T05:46:28.227Z,54.71
2024-05-09T05:47:28.394Z,51.46
2024-05-09T05:48:28.366Z,51.05
2024-05-09T05:49:28.298Z,53.06
2024-05-09T05:50:35.420Z,52.72
2024-05-09T05:51:29.203Z,52.91
2024-05-09T05:52:28.197Z,52.90
2024-05-09T05:53:28.198Z,53.39
2024-05-09T05:54:28.176Z,53.34
2024-05-09T05:55:28.182Z,52.45
2024-05-09T05:56:28.242Z,53.32
2024-05-09T05:57:28.145Z,54.35
2024-05-09T05:58:28.151Z,51.71
2024-05-09T05:59:28.224Z,52.78
2024-05-09T06:00:34.786Z,51.63
2024-05-09T06:01:29.335Z,51.72
2024-05-09T06:02:28.282Z,52.13
2024-05-09T06:03:28.283Z,51.96
2024-05-09T06:04:28.244Z,53.90
2024-05-09T06:05:28.312Z,53.44
2024-05-09T06:06:28.181Z,54.06
2024-05-09T06:07:28.167Z,50.91
2024-05-09T06:08:30.316Z,50.43
2024-05-09T06:09:28.250Z,54.45
2024-05-09T06:10:35.130Z,52.62
2024-05-09T06:11:29.388Z,52.82
2024-05-09T06:12:28.399Z,53.43
2024-05-09T06:13:28.239Z,53.17
2024-05-09T06:14:28.298Z,54.13
2024-05-09T06:15:28.211Z,52.60
2024-05-09T06:16:28.206Z,53.31
2024-05-09T06:17:28.354Z,50.27
2024-05-09T06:18:28.386Z,55.06
2024-05-09T06:19:28.470Z,52.48
2024-05-09T06:20:35.255Z,50.80
2024-05-09T06:21:29.353Z,50.97
2024-05-09T06:22:28.303Z,51.76
2024-05-09T06:23:28.373Z,51.39
2024-05-09T06:24:28.270Z,50.62
2024-05-09T06:25:28.332Z,52.14
2024-05-09T06:26:28.261Z,53.16
2024-05-09T06:27:28.270Z,54.87
2024-05-09T06:28:28.209Z,52.43
2024-05-09T06:29:28.394Z,55.45
2024-05-09T06:30:37.000Z,50.00
2024-05-09T06:31:29.295Z,50.20
2024-05-09T06:32:28.424Z,50.89
2024-05-09T06:33:28.615Z,51.31
2024-05-09T06:34:28.312Z,51.19
2024-05-09T06:35:28.418Z,52.91
2024-05-09T06:36:28.235Z,52.54
2024-05-09T06:37:28.197Z,51.28
2024-05-09T06:38:28.215Z,54.28
2024-05-09T06:39:28.179Z,53.83
2024-05-09T06:40:35.790Z,54.13
2024-05-09T06:41:29.299Z,54.26
2024-05-09T06:42:28.199Z,54.37
2024-05-09T06:43:28.178Z,54.54
2024-05-09T06:44:28.339Z,55.59
2024-05-09T06:45:28.167Z,56.01
2024-05-09T06:46:28.150Z,54.03
2024-05-09T06:47:28.392Z,54.31
2024-05-09T06:48:28.231Z,56.52
2024-05-09T06:49:28.194Z,53.87
2024-05-09T06:50:31.539Z,52.78
2024-05-09T06:51:29.088Z,52.96
2024-05-09T06:52:28.075Z,53.53
2024-05-09T06:53:28.130Z,53.57
2024-05-09T06:54:28.043Z,55.72
2024-05-09T06:55:28.035Z,54.03
2024-05-09T06:56:28.115Z,56.10
2024-05-09T06:57:28.002Z,55.45
2024-05-09T06:58:27.997Z,54.23
2024-05-09T06:59:28.017Z,53.51
2024-05-09T07:00:35.674Z,55.05
2024-05-09T07:01:29.065Z,55.24
2024-05-09T07:02:28.046Z,55.55
2024-05-09T07:03:28.095Z,54.16
2024-05-09T07:04:28.099Z,53.77
2024-05-09T07:05:28.006Z,54.94
2024-05-09T07:06:27.912Z,53.89
2024-05-09T07:07:27.899Z,54.11
2024-05-09T07:08:28.000Z,53.34
2024-05-09T07:09:27.922Z,53.12
2024-05-09T07:10:34.098Z,51.31
2024-05-09T07:11:29.033Z,51.48
2024-05-09T07:12:28.074Z,52.15
2024-05-09T07:13:27.922Z,52.65
2024-05-09T07:14:27.965Z,51.89
2024-05-09T07:15:27.883Z,51.81
2024-05-09T07:16:27.863Z,52.70
2024-05-09T07:17:28.041Z,53.53
2024-05-09T07:18:28.063Z,50.03
2024-05-09T07:19:27.943Z,52.17
2024-05-09T07:20:34.150Z,51.98
2024-05-09T07:21:28.818Z,52.13
2024-05-09T07:22:27.800Z,52.69
2024-05-09T07:23:27.825Z,52.15
2024-05-09T07:24:27.793Z,51.91
2024-05-09T07:25:27.761Z,50.97
2024-05-09T07:26:27.891Z,52.09
2024-05-09T07:27:27.738Z,53.26
2024-05-09T07:28:27.702Z,52.65
2024-05-09T07:29:27.869Z,51.75
2024-05-09T07:30:33.198Z,52.00
2024-05-09T07:31:28.687Z,52.14
2024-05-09T07:32:27.813Z,52.58
2024-05-09T07:33:27.766Z,52.84
2024-05-09T07:34:27.671Z,53.50
2024-05-09T07:35:27.850Z,52.60
2024-05-09T07:36:27.564Z,52.90
2024-05-09T07:37:27.564Z,51.79
2024-05-09T07:38:27.551Z,54.50
2024-05-09T07:39:27.515Z,53.90
2024-05-09T07:40:34.878Z,52.83
2024-05-09T07:41:28.525Z,53.03
2024-05-09T07:42:27.463Z,53.18
2024-05-09T07:43:27.463Z,53.62
2024-05-09T07:44:27.574Z,54.45
2024-05-09T07:45:44.947Z,53.10
2024-05-09T07:47:36.476Z,52.98
2024-05-09T07:50:00.269Z,53.33
2024-05-09T07:53:32.374Z,53.37
2024-05-09T07:53:39.917Z,53.48
2024-05-09T07:54:28.434Z,53.40
2024-05-09T07:55:27.348Z,55.21
2024-05-09T07:56:27.857Z,57.34
2024-05-09T07:57:27.246Z,59.00
2024-05-09T07:58:27.591Z,60.14
2024-05-09T07:59:27.150Z,58.51
2024-05-09T08:00:31.362Z,58.96
2024-05-09T08:01:28.309Z,59.07
2024-05-09T08:02:27.203Z,58.64
2024-05-09T08:03:27.150Z,59.08
2024-05-09T08:04:27.175Z,57.17
2024-05-09T08:05:27.176Z,56.97
2024-05-09T08:06:27.141Z,56.73
2024-05-09T08:07:27.009Z,52.78
2024-05-09T08:08:27.014Z,53.18
2024-05-09T08:09:27.040Z,53.49
2024-05-09T08:10:28.986Z,54.07
2024-05-09T08:11:27.007Z,52.47
2024-05-09T08:12:27.027Z,52.89
2024-05-09T08:13:27.033Z,52.43
2024-05-09T08:14:27.035Z,53.56
2024-05-09T08:15:27.174Z,53.86
2024-05-09T08:16:27.158Z,53.64
2024-05-09T08:17:27.173Z,52.68
2024-05-09T08:18:27.411Z,53.44
2024-05-09T08:19:27.196Z,53.11
2024-05-09T08:20:33.403Z,51.13
2024-05-09T08:21:28.195Z,51.33
2024-05-09T08:22:27.145Z,51.60
2024-05-09T08:23:27.148Z,52.06
2024-05-09T08:24:27.127Z,51.12
2024-05-09T08:25:27.228Z,51.75
2024-05-09T08:26:27.086Z,52.44
2024-05-09T08:27:27.109Z,51.08
2024-05-09T08:28:27.188Z,53.78
2024-05-09T08:29:27.014Z,51.85
2024-05-09T08:30:33.499Z,50.15
2024-05-09T08:31:28.047Z,50.41
2024-05-09T08:32:27.052Z,50.84
2024-05-09T08:33:27.091Z,51.50
2024-05-09T08:34:26.982Z,51.32
2024-05-09T08:35:26.894Z,50.40
2024-05-09T08:36:26.938Z,53.93
2024-05-09T08:37:31.053Z,53.63
2024-05-09T08:38:27.839Z,53.83
2024-05-09T08:39:26.823Z,53.96
2024-05-09T08:40:34.087Z,54.16
2024-05-09T08:41:27.769Z,53.84
2024-05-09T08:42:26.791Z,54.20
2024-05-09T08:43:26.807Z,54.30
2024-05-09T08:44:26.714Z,54.59
2024-05-09T08:45:26.713Z,51.60
2024-05-09T08:46:26.810Z,52.87
2024-05-09T08:47:26.809Z,51.84
2024-05-09T08:48:26.787Z,52.72
2024-05-09T08:49:26.739Z,53.26
2024-05-09T08:50:35.360Z,52.32
2024-05-09T08:51:27.608Z,52.49
2024-05-09T08:52:26.533Z,52.73
2024-05-09T08:53:26.513Z,53.10
2024-05-09T08:54:26.500Z,52.75
2024-05-09T08:55:26.470Z,53.26
2024-05-09T08:56:26.463Z,52.90
2024-05-09T08:57:26.433Z,50.49
2024-05-09T08:58:26.464Z,52.62
2024-05-09T08:59:26.391Z,53.08
2024-05-09T09:00:34.125Z,53.77
2024-05-09T09:01:27.413Z,53.88
2024-05-09T09:02:26.460Z,54.39
2024-05-09T09:03:26.338Z,54.26
2024-05-09T09:04:26.332Z,54.25
2024-05-09T09:05:26.418Z,55.90
2024-05-09T09:06:26.236Z,54.25
2024-05-09T09:07:26.262Z,54.32
2024-05-09T09:08:26.168Z,52.48
2024-05-09T09:09:26.152Z,53.85
2024-05-09T09:10:31.797Z,54.65
2024-05-09T09:11:27.113Z,54.75
2024-05-09T09:12:26.070Z,54.79
2024-05-09T09:13:26.056Z,55.06
2024-05-09T09:14:26.026Z,54.09
2024-05-09T09:15:26.011Z,53.16
2024-05-09T09:16:26.092Z,53.14
2024-05-09T09:17:26.024Z,52.35
2024-05-09T09:18:26.069Z,52.05
2024-05-09T09:19:26.141Z,51.04
2024-05-09T09:20:33.334Z,51.98
2024-05-09T09:21:26.994Z,52.19
2024-05-09T09:22:25.855Z,52.40
2024-05-09T09:23:25.843Z,52.22
2024-05-09T09:24:25.820Z,53.79
2024-05-09T09:25:25.800Z,53.09
2024-05-09T09:26:25.789Z,53.80
2024-05-09T09:27:25.775Z,53.75
2024-05-09T09:28:25.760Z,51.97
2024-05-09T09:29:25.737Z,52.78
2024-05-09T09:30:34.797Z,52.51
2024-05-09T09:31:26.751Z,52.74
2024-05-09T09:32:25.760Z,52.98
2024-05-09T09:33:25.707Z,53.08
2024-05-09T09:34:25.696Z,52.71
2024-05-09T09:35:25.612Z,55.69
2024-05-09T09:36:25.586Z,52.95
2024-05-09T09:37:25.575Z,52.82
2024-05-09T09:38:25.549Z,53.31
2024-05-09T09:39:25.532Z,52.30
2024-05-09T09:40:31.405Z,52.88
2024-05-09T09:41:26.474Z,53.04
2024-05-09T09:42:25.458Z,53.40
2024-05-09T09:43:25.482Z,52.85
2024-05-09T09:44:25.414Z,53.14
2024-05-09T09:45:25.409Z,52.15
2024-05-09T09:46:25.536Z,51.43
2024-05-09T09:47:25.379Z,50.52
2024-05-09T09:48:25.461Z,52.27
2024-05-09T09:49:25.427Z,51.33
2024-05-09T09:51:25.274Z,52.92
2024-05-09T09:52:25.279Z,52.70
2024-05-09T09:53:25.229Z,53.30
2024-05-09T09:54:25.206Z,53.62
2024-05-09T09:55:25.269Z,54.25
2024-05-09T09:56:25.175Z,53.64
2024-05-09T09:57:25.193Z,52.94
2024-05-09T09:58:25.263Z,50.44
2024-05-09T09:59:25.221Z,52.91
2024-05-09T10:00:30.577Z,53.41
2024-05-09T10:01:26.275Z,53.55
2024-05-09T10:02:25.276Z,53.96
2024-05-09T10:03:25.220Z,54.56
2024-05-09T10:04:25.210Z,53.76
2024-05-09T10:05:25.401Z,52.82
2024-05-09T10:06:25.108Z,53.68
2024-05-09T10:07:25.062Z,53.46
2024-05-09T10:08:25.041Z,53.52
2024-05-09T10:09:25.059Z,54.28
2024-05-09T10:10:31.478Z,51.74
2024-05-09T10:11:26.048Z,51.96
2024-05-09T10:12:24.994Z,52.17
2024-05-09T10:13:25.025Z,52.43
2024-05-09T10:14:24.904Z,51.90
2024-05-09T10:15:24.891Z,53.41
2024-05-09T10:16:24.962Z,53.60
2024-05-09T10:17:24.957Z,51.50
2024-05-09T10:18:28.330Z,53.65
2024-05-09T10:19:25.863Z,53.78
2024-05-09T10:20:28.114Z,53.66
2024-05-09T10:21:25.780Z,53.90
2024-05-09T10:22:24.754Z,54.06
2024-05-09T10:23:24.727Z,54.91
2024-05-09T10:24:24.682Z,56.02
2024-05-09T10:25:24.752Z,53.57
2024-05-09T10:26:24.643Z,55.48
2024-05-09T10:27:24.626Z,52.10
2024-05-09T10:28:24.613Z,53.41
2024-05-09T10:29:24.592Z,53.53
2024-05-09T10:30:33.427Z,52.88
2024-05-09T10:31:25.584Z,53.08
2024-05-09T10:32:24.656Z,53.35
2024-05-09T10:33:24.559Z,53.20
2024-05-09T10:34:24.818Z,53.99
2024-05-09T10:35:24.454Z,53.59
2024-05-09T10:36:24.446Z,51.09
2024-05-09T10:37:24.569Z,52.22
2024-05-09T10:38:24.386Z,53.22
2024-05-09T10:39:24.359Z,51.54
2024-05-09T10:40:30.979Z,53.33
2024-05-09T10:41:25.295Z,53.48
2024-05-09T10:42:24.263Z,53.68
2024-05-09T10:43:24.287Z,53.89
2024-05-09T10:44:24.222Z,51.96
2024-05-09T10:45:24.183Z,52.54
2024-05-09T10:46:24.227Z,53.47
2024-05-09T10:47:24.386Z,52.20
2024-05-09T10:48:24.299Z,52.54
2024-05-09T10:49:24.220Z,50.00
2024-05-09T10:50:28.667Z,52.67
2024-05-09T10:51:25.037Z,52.86
2024-05-09T10:52:24.097Z,53.16
2024-05-09T10:53:24.008Z,53.92
2024-05-09T10:54:23.956Z,53.39
2024-05-09T10:55:24.054Z,56.10
2024-05-09T10:56:23.941Z,56.90
2024-05-09T10:57:23.909Z,54.95
2024-05-09T10:58:23.927Z,54.91
2024-05-09T10:59:23.848Z,54.56
2024-05-09T11:00:30.533Z,56.61
2024-05-09T11:01:24.875Z,56.71
2024-05-09T11:02:24.005Z,56.92
2024-05-09T11:03:23.891Z,56.68
2024-05-09T11:04:23.808Z,57.10
2024-05-09T11:05:23.818Z,56.92
2024-05-09T11:06:23.721Z,56.05
2024-05-09T11:07:23.829Z,55.00
2024-05-09T11:08:23.673Z,56.55
2024-05-09T11:09:23.639Z,57.40
2024-05-09T11:10:27.600Z,55.96
2024-05-09T11:11:24.592Z,56.15
2024-05-09T11:12:24.791Z,56.43
2024-05-09T11:13:23.542Z,56.87
2024-05-09T11:14:23.532Z,56.60
2024-05-09T11:15:23.502Z,58.37
2024-05-09T11:16:23.554Z,57.53
2024-05-09T11:17:23.523Z,57.92
2024-05-09T11:18:24.952Z,58.76
2024-05-09T11:19:23.805Z,58.83
2024-05-09T11:20:29.496Z,57.45
2024-05-09T11:21:24.728Z,57.58
2024-05-09T11:22:23.638Z,57.78
2024-05-09T11:23:23.583Z,57.92
2024-05-09T11:24:23.557Z,58.29
2024-05-09T11:25:23.545Z,59.37
2024-05-09T11:26:23.493Z,59.48
2024-05-09T11:27:23.487Z,57.67
2024-05-09T11:28:23.491Z,57.69
2024-05-09T11:29:23.414Z,56.38
2024-05-09T11:30:29.799Z,59.02
2024-05-09T11:31:24.623Z,59.17
2024-05-09T11:32:23.377Z,59.39
2024-05-09T11:33:23.355Z,59.46
2024-05-09T11:34:23.366Z,59.60
2024-05-09T11:35:23.305Z,58.07
2024-05-09T11:36:23.284Z,59.39
2024-05-09T11:37:23.264Z,56.06
2024-05-09T11:38:23.241Z,59.33
2024-05-09T11:39:23.216Z,57.65
2024-05-09T11:40:25.805Z,58.59
2024-05-09T11:41:24.185Z,58.72
2024-05-09T11:42:23.160Z,58.90
2024-05-09T11:43:23.310Z,59.89
2024-05-09T11:44:23.124Z,58.36
2024-05-09T11:45:23.542Z,58.78
2024-05-09T11:46:23.265Z,59.62
2024-05-09T11:47:23.195Z,58.94
2024-05-09T11:48:23.108Z,60.78
2024-05-09T11:49:26.316Z,59.52
2024-05-09T11:50:29.687Z,59.60
2024-05-09T11:51:23.966Z,59.79
2024-05-09T11:52:22.988Z,60.15
2024-05-09T11:53:22.975Z,60.01
2024-05-09T11:54:22.911Z,60.29
2024-05-09T11:55:25.629Z,59.34
2024-05-09T11:56:23.538Z,59.62
2024-05-09T11:57:22.845Z,59.87
2024-05-09T11:58:23.106Z,59.15
2024-05-09T11:59:22.810Z,58.53
2024-05-09T12:00:33.671Z,59.59
2024-05-09T12:01:26.939Z,59.67
2024-05-09T12:02:22.987Z,59.79
2024-05-09T12:03:22.820Z,60.22
2024-05-09T12:04:22.877Z,59.59
2024-05-09T12:05:22.879Z,58.28
2024-05-09T12:06:22.646Z,60.19
2024-05-09T12:07:22.764Z,57.44
2024-05-09T12:08:22.623Z,57.67
2024-05-09T12:09:22.592Z,58.14
2024-05-09T12:10:29.584Z,58.40
2024-05-09T12:11:23.624Z,58.56
2024-05-09T12:12:22.531Z,58.63
2024-05-09T12:13:22.649Z,58.91
2024-05-09T12:14:22.481Z,58.85
2024-05-09T12:15:22.472Z,56.80
2024-05-09T12:16:22.609Z,55.25
2024-05-09T12:17:22.486Z,56.17
2024-05-09T12:18:22.491Z,55.05
2024-05-09T12:19:22.429Z,57.39
2024-05-09T12:20:28.830Z,53.01
2024-05-09T12:21:23.329Z,53.28
2024-05-09T12:22:22.331Z,53.80
2024-05-09T12:23:22.300Z,54.71
2024-05-09T12:24:22.276Z,54.93
2024-05-09T12:25:22.290Z,55.30
2024-05-09T12:26:22.241Z,55.56
2024-05-09T12:27:22.218Z,54.57
2024-05-09T12:28:22.293Z,55.28
2024-05-09T12:29:22.204Z,56.04
2024-05-09T12:30:32.683Z,55.50
2024-05-09T12:31:23.198Z,55.62
2024-05-09T12:32:22.246Z,56.00
2024-05-09T12:33:22.194Z,56.18
2024-05-09T12:34:22.203Z,55.92
2024-05-09T12:35:22.074Z,54.46
2024-05-09T12:36:22.061Z,54.27
2024-05-09T12:37:22.077Z,53.74
2024-05-09T12:38:22.014Z,52.28
2024-05-09T12:39:22.022Z,53.00
2024-05-09T12:40:30.758Z,54.88
2024-05-09T12:41:22.970Z,55.03
2024-05-09T12:42:27.269Z,55.11
2024-05-09T12:43:23.092Z,55.03
2024-05-09T12:44:21.904Z,55.44
2024-05-09T12:45:21.890Z,55.43
2024-05-09T12:46:21.981Z,55.09
2024-05-09T12:47:21.944Z,54.36
2024-05-09T12:48:21.934Z,54.52
2024-05-09T12:49:21.987Z,53.98
2024-05-09T12:50:29.226Z,52.96
2024-05-09T12:51:22.786Z,53.14
2024-05-09T12:52:21.837Z,53.35